Archival Weather

South Haven Area Rgnl

South Haven, Michigan (KLWA)

Report from: Thursday, September 21, 2023 4:15 PM EDT
Current time: Sunday, July 14, 2024 6:09 AM EDT

Current weather – Weather history – Daily summaries
Weather forecast

Temperature26.2°C (79.2°F)
Dew point17.5°C (63.5°F)
Winds Calm
Visibility10 mi. (16.1 km)
Clouds Sky clear
Altimeter30.21 in.Hg (1023 mB)
Relative humidity59 %
Density altitude1,240 ft. (378 m)
Remarks Fully automated report
Automated weather observing station with precipitation discriminator
Flight conditions Visual Meteorological Conditions
Raw dataKLWA 212015Z AUTO 00000KT 10SM CLR 26/18 A3021 RMK AO2 T02620175
An error has occurred. This application may no longer respond until reloaded. Reload 🗙